sensor_id;sensor_type;location;lat;lon;timestamp;pressure;altitude;pressure_sealevel;temperature;humidity
34506;BME280;20748;42.632;23.198;2023-02-13T00:01:29;93573.72;;;-2.24;90.87
34506;BME280;20748;42.632;23.198;2023-02-13T00:04:02;93563.94;;;-2.36;91.08
34506;BME280;20748;42.632;23.198;2023-02-13T00:06:35;93566.50;;;-2.36;91.35
34506;BME280;20748;42.632;23.198;2023-02-13T00:09:08;93564.19;;;-2.46;92.75
34506;BME280;20748;42.632;23.198;2023-02-13T00:11:41;93565.69;;;-2.36;93.36
34506;BME280;20748;42.632;23.198;2023-02-13T00:14:14;93569.91;;;-2.28;93.54
34506;BME280;20748;42.632;23.198;2023-02-13T00:16:47;93567.78;;;-2.25;93.09
34506;BME280;20748;42.632;23.198;2023-02-13T00:19:20;93563.66;;;-2.26;92.80
34506;BME280;20748;42.632;23.198;2023-02-13T00:21:53;93562.06;;;-2.27;93.34
34506;BME280;20748;42.632;23.198;2023-02-13T00:24:25;93553.94;;;-2.31;93.56
34506;BME280;20748;42.632;23.198;2023-02-13T00:26:58;93571.22;;;-2.33;93.83
34506;BME280;20748;42.632;23.198;2023-02-13T00:29:31;93566.72;;;-2.31;93.85
34506;BME280;20748;42.632;23.198;2023-02-13T00:32:05;93568.06;;;-2.35;93.99
34506;BME280;20748;42.632;23.198;2023-02-13T00:34:37;93563.13;;;-2.36;93.68
34506;BME280;20748;42.632;23.198;2023-02-13T00:37:10;93563.69;;;-2.41;93.16
34506;BME280;20748;42.632;23.198;2023-02-13T00:39:42;93573.28;;;-2.43;93.20
34506;BME280;20748;42.632;23.198;2023-02-13T00:42:15;93571.09;;;-2.46;92.83
34506;BME280;20748;42.632;23.198;2023-02-13T00:44:49;93568.88;;;-2.49;93.39
34506;BME280;20748;42.632;23.198;2023-02-13T00:47:22;93572.69;;;-2.60;94.27
34506;BME280;20748;42.632;23.198;2023-02-13T00:49:55;93578.84;;;-2.70;94.55
34506;BME280;20748;42.632;23.198;2023-02-13T00:52:27;93579.81;;;-2.71;95.62
34506;BME280;20748;42.632;23.198;2023-02-13T00:55:00;93575.41;;;-2.92;95.81
34506;BME280;20748;42.632;23.198;2023-02-13T00:57:33;93583.06;;;-2.92;96.12
34506;BME280;20748;42.632;23.198;2023-02-13T01:00:06;93584.06;;;-2.93;96.08
34506;BME280;20748;42.632;23.198;2023-02-13T01:02:40;93589.97;;;-2.92;96.58
34506;BME280;20748;42.632;23.198;2023-02-13T01:05:12;93593.56;;;-2.87;97.08
34506;BME280;20748;42.632;23.198;2023-02-13T01:07:45;93581.13;;;-2.90;97.01
34506;BME280;20748;42.632;23.198;2023-02-13T01:10:18;93593.19;;;-2.99;96.59
34506;BME280;20748;42.632;23.198;2023-02-13T01:12:50;93590.47;;;-2.97;97.09
34506;BME280;20748;42.632;23.198;2023-02-13T01:15:23;93579.38;;;-3.04;97.15
34506;BME280;20748;42.632;23.198;2023-02-13T01:17:57;93588.09;;;-2.99;97.22
34506;BME280;20748;42.632;23.198;2023-02-13T01:20:32;93586.34;;;-2.98;97.46
34506;BME280;20748;42.632;23.198;2023-02-13T01:23:04;93578.34;;;-2.95;97.87
34506;BME280;20748;42.632;23.198;2023-02-13T01:25:39;93595.06;;;-2.92;98.41
34506;BME280;20748;42.632;23.198;2023-02-13T01:28:11;93597.44;;;-2.91;98.84
34506;BME280;20748;42.632;23.198;2023-02-13T01:30:44;93594.59;;;-2.96;99.81
34506;BME280;20748;42.632;23.198;2023-02-13T01:33:17;93592.31;;;-2.91;99.84
34506;BME280;20748;42.632;23.198;2023-02-13T01:35:50;93595.69;;;-2.90;100.00
34506;BME280;20748;42.632;23.198;2023-02-13T01:38:23;93596.47;;;-2.90;100.00
34506;BME280;20748;42.632;23.198;2023-02-13T01:40:55;93601.06;;;-2.85;100.00
34506;BME280;20748;42.632;23.198;2023-02-13T01:43:43;93597.09;;;-2.88;100.00
34506;BME280;20748;42.632;23.198;2023-02-13T01:46:21;93599.28;;;-2.85;100.00
34506;BME280;20748;42.632;23.198;2023-02-13T01:49:00;93598.84;;;-2.88;100.00
34506;BME280;20748;42.632;23.198;2023-02-13T01:51:35;93602.47;;;-2.83;100.00
34506;BME280;20748;42.632;23.198;2023-02-13T01:54:11;93596.22;;;-2.80;100.00
34506;BME280;20748;42.632;23.198;2023-02-13T01:56:47;93595.06;;;-2.77;100.00
34506;BME280;20748;42.632;23.198;2023-02-13T01:59:24;93600.19;;;-2.77;100.00
34506;BME280;20748;42.632;23.198;2023-02-13T02:01:59;93600.19;;;-2.77;100.00
34506;BME280;20748;42.632;23.198;2023-02-13T02:04:35;93604.22;;;-2.98;100.00
34506;BME280;20748;42.632;23.198;2023-02-13T02:07:18;93607.13;;;-3.01;100.00
34506;BME280;20748;42.632;23.198;2023-02-13T02:10:00;93603.66;;;-3.08;100.00
34506;BME280;20748;42.632;23.198;2023-02-13T02:12:39;93601.38;;;-3.03;100.00
34506;BME280;20748;42.632;23.198;2023-02-13T02:15:15;93604.75;;;-3.03;100.00
34506;BME280;20748;42.632;23.198;2023-02-13T02:17:47;93604.75;;;-3.03;100.00
34506;BME280;20748;42.632;23.198;2023-02-13T02:20:34;93606.50;;;-3.03;100.00
34506;BME280;20748;42.632;23.198;2023-02-13T02:23:32;93601.09;;;-3.08;100.00
34506;BME280;20748;42.632;23.198;2023-02-13T02:26:38;93600.94;;;-3.07;100.00
34506;BME280;20748;42.632;23.198;2023-02-13T02:29:28;93603.59;;;-3.15;100.00
34506;BME280;20748;42.632;23.198;2023-02-13T02:32:21;93608.31;;;-3.12;100.00
34506;BME280;20748;42.632;23.198;2023-02-13T02:35:04;93612.47;;;-3.11;100.00
34506;BME280;20748;42.632;23.198;2023-02-13T02:37:55;93598.56;;;-3.08;100.00
34506;BME280;20748;42.632;23.198;2023-02-13T02:40:39;93607.47;;;-3.04;100.00
34506;BME280;20748;42.632;23.198;2023-02-13T02:43:26;93614.09;;;-2.95;100.00
34506;BME280;20748;42.632;23.198;2023-02-13T02:46:07;93617.34;;;-3.01;100.00
34506;BME280;20748;42.632;23.198;2023-02-13T02:48:49;93615.69;;;-2.94;100.00
34506;BME280;20748;42.632;23.198;2023-02-13T02:51:49;93628.88;;;-2.90;100.00
34506;BME280;20748;42.632;23.198;2023-02-13T02:54:29;93622.28;;;-2.85;100.00
34506;BME280;20748;42.632;23.198;2023-02-13T02:57:25;93624.94;;;-2.78;100.00
34506;BME280;20748;42.632;23.198;2023-02-13T03:00:21;93631.78;;;-2.78;100.00
34506;BME280;20748;42.632;23.198;2023-02-13T03:03:17;93628.91;;;-2.75;100.00
34506;BME280;20748;42.632;23.198;2023-02-13T03:06:12;93631.34;;;-2.67;100.00
34506;BME280;20748;42.632;23.198;2023-02-13T03:08:52;93605.81;;;-2.82;100.00
34506;BME280;20748;42.632;23.198;2023-02-13T03:11:48;93628.63;;;-2.65;100.00
34506;BME280;20748;42.632;23.198;2023-02-13T03:14:40;93629.72;;;-2.60;100.00
34506;BME280;20748;42.632;23.198;2023-02-13T03:17:15;93628.09;;;-2.61;100.00
34506;BME280;20748;42.632;23.198;2023-02-13T03:20:13;93629.25;;;-2.63;100.00
34506;BME280;20748;42.632;23.198;2023-02-13T03:23:11;93630.66;;;-2.61;100.00
34506;BME280;20748;42.632;23.198;2023-02-13T03:26:05;93628.81;;;-2.67;100.00
34506;BME280;20748;42.632;23.198;2023-02-13T03:28:46;93622.03;;;-2.60;100.00
34506;BME280;20748;42.632;23.198;2023-02-13T03:31:46;93616.28;;;-2.62;100.00
34506;BME280;20748;42.632;23.198;2023-02-13T03:34:23;93604.88;;;-2.66;100.00
34506;BME280;20748;42.632;23.198;2023-02-13T03:36:59;93613.19;;;-2.57;100.00
34506;BME280;20748;42.632;23.198;2023-02-13T03:39:57;93630.41;;;-2.51;100.00
34506;BME280;20748;42.632;23.198;2023-02-13T03:42:34;93630.16;;;-2.56;100.00
34506;BME280;20748;42.632;23.198;2023-02-13T03:45:11;93640.63;;;-2.51;100.00
34506;BME280;20748;42.632;23.198;2023-02-13T03:48:04;93634.56;;;-2.50;100.00
34506;BME280;20748;42.632;23.198;2023-02-13T03:51:01;93632.50;;;-2.54;100.00
34506;BME280;20748;42.632;23.198;2023-02-13T03:53:37;93624.41;;;-2.58;100.00
34506;BME280;20748;42.632;23.198;2023-02-13T03:56:12;93626.63;;;-2.55;100.00
34506;BME280;20748;42.632;23.198;2023-02-13T03:59:05;93628.75;;;-2.59;100.00
34506;BME280;20748;42.632;23.198;2023-02-13T04:01:55;93619.50;;;-2.60;100.00
34506;BME280;20748;42.632;23.198;2023-02-13T04:04:36;93628.75;;;-2.59;100.00
34506;BME280;20748;42.632;23.198;2023-02-13T04:07:14;93624.06;;;-2.70;100.00
34506;BME280;20748;42.632;23.198;2023-02-13T04:10:02;93623.91;;;-2.68;100.00
34506;BME280;20748;42.632;23.198;2023-02-13T04:12:45;93630.66;;;-2.61;100.00
34506;BME280;20748;42.632;23.198;2023-02-13T04:15:24;93637.44;;;-2.53;100.00
34506;BME280;20748;42.632;23.198;2023-02-13T04:18:04;93633.41;;;-2.47;100.00
34506;BME280;20748;42.632;23.198;2023-02-13T04:20:42;93632.44;;;-2.46;100.00
34506;BME280;20748;42.632;23.198;2023-02-13T04:23:15;93653.31;;;-2.43;100.00
34506;BME280;20748;42.632;23.198;2023-02-13T04:25:49;93638.25;;;-2.37;100.00
34506;BME280;20748;42.632;23.198;2023-02-13T04:28:24;93644.34;;;-2.38;100.00
34506;BME280;20748;42.632;23.198;2023-02-13T04:30:56;93646.91;;;-2.38;100.00
34506;BME280;20748;42.632;23.198;2023-02-13T04:33:29;93651.81;;;-2.37;100.00
34506;BME280;20748;42.632;23.198;2023-02-13T04:36:02;93650.50;;;-2.33;100.00
34506;BME280;20748;42.632;23.198;2023-02-13T04:38:35;93645.22;;;-2.31;100.00
34506;BME280;20748;42.632;23.198;2023-02-13T04:41:07;93644.50;;;-2.25;100.00
34506;BME280;20748;42.632;23.198;2023-02-13T04:43:40;93644.06;;;-2.28;100.00
34506;BME280;20748;42.632;23.198;2023-02-13T04:46:13;93640.09;;;-2.31;100.00
34506;BME280;20748;42.632;23.198;2023-02-13T04:48:45;93642.91;;;-2.26;100.00
34506;BME280;20748;42.632;23.198;2023-02-13T04:51:18;93634.00;;;-2.30;100.00
34506;BME280;20748;42.632;23.198;2023-02-13T04:53:50;93637.53;;;-2.31;100.00
34506;BME280;20748;42.632;23.198;2023-02-13T04:56:23;93642.13;;;-2.26;100.00
34506;BME280;20748;42.632;23.198;2023-02-13T04:58:56;93637.63;;;-2.24;100.00
34506;BME280;20748;42.632;23.198;2023-02-13T05:01:28;93639.22;;;-2.23;100.00
34506;BME280;20748;42.632;23.198;2023-02-13T05:04:01;93647.50;;;-2.21;100.00
34506;BME280;20748;42.632;23.198;2023-02-13T05:06:33;93647.31;;;-2.20;100.00
34506;BME280;20748;42.632;23.198;2023-02-13T05:09:06;93656.41;;;-2.17;100.00
34506;BME280;20748;42.632;23.198;2023-02-13T05:11:38;93661.09;;;-2.21;100.00
34506;BME280;20748;42.632;23.198;2023-02-13T05:14:11;93663.25;;;-2.18;100.00
34506;BME280;20748;42.632;23.198;2023-02-13T05:16:44;93664.34;;;-2.12;100.00
34506;BME280;20748;42.632;23.198;2023-02-13T05:19:16;93667.84;;;-2.13;99.09
34506;BME280;20748;42.632;23.198;2023-02-13T05:21:49;93670.94;;;-2.18;98.11
34506;BME280;20748;42.632;23.198;2023-02-13T05:24:40;93663.19;;;-2.24;98.00
34506;BME280;20748;42.632;23.198;2023-02-13T05:27:12;93668.66;;;-2.27;97.81
34506;BME280;20748;42.632;23.198;2023-02-13T05:29:46;93671.66;;;-2.24;96.21
34506;BME280;20748;42.632;23.198;2023-02-13T05:32:18;93668.06;;;-2.30;96.63
34506;BME280;20748;42.632;23.198;2023-02-13T05:34:50;93675.19;;;-2.25;96.52
34506;BME280;20748;42.632;23.198;2023-02-13T05:37:23;93668.31;;;-2.24;96.84
34506;BME280;20748;42.632;23.198;2023-02-13T05:39:55;93671.81;;;-2.25;97.20
34506;BME280;20748;42.632;23.198;2023-02-13T05:42:28;93668.91;;;-2.22;96.71
34506;BME280;20748;42.632;23.198;2023-02-13T05:45:01;93668.91;;;-2.22;96.65
34506;BME280;20748;42.632;23.198;2023-02-13T05:47:34;93670.34;;;-2.20;96.27
34506;BME280;20748;42.632;23.198;2023-02-13T05:50:07;93678.44;;;-2.16;96.10
34506;BME280;20748;42.632;23.198;2023-02-13T05:52:39;93657.72;;;-2.21;95.60
34506;BME280;20748;42.632;23.198;2023-02-13T05:55:12;93677.47;;;-2.15;94.88
34506;BME280;20748;42.632;23.198;2023-02-13T05:57:44;93682.94;;;-2.18;95.06
34506;BME280;20748;42.632;23.198;2023-02-13T06:00:19;93677.47;;;-2.15;94.42
34506;BME280;20748;42.632;23.198;2023-02-13T06:02:52;93683.47;;;-2.23;91.23
34506;BME280;20748;42.632;23.198;2023-02-13T06:05:24;93686.22;;;-2.24;91.43
34506;BME280;20748;42.632;23.198;2023-02-13T06:07:57;93687.53;;;-2.28;91.88
34506;BME280;20748;42.632;23.198;2023-02-13T06:10:30;93685.16;;;-2.30;92.40
34506;BME280;20748;42.632;23.198;2023-02-13T06:13:02;93689.44;;;-2.31;92.76
34506;BME280;20748;42.632;23.198;2023-02-13T06:15:35;93696.06;;;-2.36;94.83
34506;BME280;20748;42.632;23.198;2023-02-13T06:18:08;93690.00;;;-2.35;95.67
34506;BME280;20748;42.632;23.198;2023-02-13T06:20:40;93690.44;;;-2.32;96.42
34506;BME280;20748;42.632;23.198;2023-02-13T06:23:13;93693.97;;;-2.33;96.98
34506;BME280;20748;42.632;23.198;2023-02-13T06:25:46;93691.31;;;-2.39;97.94
34506;BME280;20748;42.632;23.198;2023-02-13T06:28:18;93691.56;;;-2.34;98.42
34506;BME280;20748;42.632;23.198;2023-02-13T06:30:51;93691.56;;;-2.34;98.93
34506;BME280;20748;42.632;23.198;2023-02-13T06:33:24;93698.53;;;-2.28;99.26
34506;BME280;20748;42.632;23.198;2023-02-13T06:35:56;93696.25;;;-2.23;99.67
34506;BME280;20748;42.632;23.198;2023-02-13T06:38:29;93698.47;;;-2.20;100.00
34506;BME280;20748;42.632;23.198;2023-02-13T06:41:02;93701.72;;;-2.11;100.00
34506;BME280;20748;42.632;23.198;2023-02-13T06:43:35;93703.56;;;-2.05;100.00
34506;BME280;20748;42.632;23.198;2023-02-13T06:46:11;93698.28;;;-2.03;99.87
34506;BME280;20748;42.632;23.198;2023-02-13T06:48:43;93694.59;;;-2.00;100.00
34506;BME280;20748;42.632;23.198;2023-02-13T06:51:16;93699.88;;;-2.02;100.00
34506;BME280;20748;42.632;23.198;2023-02-13T06:53:48;93700.66;;;-2.02;100.00
34506;BME280;20748;42.632;23.198;2023-02-13T06:56:21;93697.38;;;-2.10;100.00
34506;BME280;20748;42.632;23.198;2023-02-13T06:58:53;93701.56;;;-2.09;100.00
34506;BME280;20748;42.632;23.198;2023-02-13T07:01:26;93700.91;;;-2.11;100.00
34506;BME280;20748;42.632;23.198;2023-02-13T07:03:59;93695.47;;;-2.08;100.00
34506;BME280;20748;42.632;23.198;2023-02-13T07:06:31;93701.34;;;-2.08;100.00
34506;BME280;20748;42.632;23.198;2023-02-13T07:09:05;93699.94;;;-1.95;100.00
34506;BME280;20748;42.632;23.198;2023-02-13T07:11:37;93698.09;;;-2.02;100.00
34506;BME280;20748;42.632;23.198;2023-02-13T07:14:10;93696.19;;;-2.14;100.00
34506;BME280;20748;42.632;23.198;2023-02-13T07:16:43;93686.53;;;-1.97;100.00
34506;BME280;20748;42.632;23.198;2023-02-13T07:19:16;93692.19;;;-1.87;100.00
34506;BME280;20748;42.632;23.198;2023-02-13T07:21:48;93693.63;;;-1.78;100.00
34506;BME280;20748;42.632;23.198;2023-02-13T07:24:21;93699.28;;;-1.67;100.00
34506;BME280;20748;42.632;23.198;2023-02-13T07:26:54;93700.25;;;-1.68;100.00
34506;BME280;20748;42.632;23.198;2023-02-13T07:29:26;93709.22;;;-1.57;100.00
34506;BME280;20748;42.632;23.198;2023-02-13T07:32:00;93701.03;;;-1.53;100.00
34506;BME280;20748;42.632;23.198;2023-02-13T07:34:33;93703.13;;;-1.41;100.00
34506;BME280;20748;42.632;23.198;2023-02-13T07:37:05;93708.41;;;-1.43;100.00
34506;BME280;20748;42.632;23.198;2023-02-13T07:39:38;93699.66;;;-1.49;100.00
34506;BME280;20748;42.632;23.198;2023-02-13T07:42:10;93712.13;;;-1.45;100.00
34506;BME280;20748;42.632;23.198;2023-02-13T07:44:43;93701.50;;;-1.42;100.00
34506;BME280;20748;42.632;23.198;2023-02-13T07:47:16;93707.63;;;-1.22;100.00
34506;BME280;20748;42.632;23.198;2023-02-13T07:49:51;93705.75;;;-1.13;100.00
34506;BME280;20748;42.632;23.198;2023-02-13T07:52:25;93709.09;;;-1.12;100.00
34506;BME280;20748;42.632;23.198;2023-02-13T07:54:58;93704.59;;;-1.10;100.00
34506;BME280;20748;42.632;23.198;2023-02-13T07:57:30;93705.50;;;-0.96;100.00
34506;BME280;20748;42.632;23.198;2023-02-13T08:00:04;93707.91;;;-0.88;100.00
34506;BME280;20748;42.632;23.198;2023-02-13T08:02:44;93696.75;;;-0.80;100.00
34506;BME280;20748;42.632;23.198;2023-02-13T08:05:16;93703.38;;;-0.64;100.00
34506;BME280;20748;42.632;23.198;2023-02-13T08:07:49;93704.06;;;-0.48;100.00
34506;BME280;20748;42.632;23.198;2023-02-13T08:10:21;93707.53;;;-0.34;100.00
34506;BME280;20748;42.632;23.198;2023-02-13T08:13:13;93712.31;;;-0.24;100.00
34506;BME280;20748;42.632;23.198;2023-02-13T08:15:47;93708.59;;;-0.22;100.00
34506;BME280;20748;42.632;23.198;2023-02-13T08:18:20;93705.91;;;-0.42;100.00
34506;BME280;20748;42.632;23.198;2023-02-13T08:20:53;93711.16;;;-0.22;100.00
34506;BME280;20748;42.632;23.198;2023-02-13T08:23:25;93704.56;;;-0.31;100.00
34506;BME280;20748;42.632;23.198;2023-02-13T08:25:59;93705.25;;;-0.16;98.43
34506;BME280;20748;42.632;23.198;2023-02-13T08:28:34;93701.53;;;-0.13;98.40
34506;BME280;20748;42.632;23.198;2023-02-13T08:31:09;93706.50;;;-0.05;97.87
34506;BME280;20748;42.632;23.198;2023-02-13T08:33:44;93710.47;;;-0.02;97.98
34506;BME280;20748;42.632;23.198;2023-02-13T08:36:16;93702.91;;;-0.10;98.13
34506;BME280;20748;42.632;23.198;2023-02-13T08:38:50;93712.84;;;-0.01;97.69
34506;BME280;20748;42.632;23.198;2023-02-13T08:41:22;93709.31;;;0.07;97.48
34506;BME280;20748;42.632;23.198;2023-02-13T08:43:55;93707.94;;;0.11;96.46
34506;BME280;20748;42.632;23.198;2023-02-13T08:46:27;93699.69;;;0.16;96.71
34506;BME280;20748;42.632;23.198;2023-02-13T08:49:00;93706.63;;;0.22;96.43
34506;BME280;20748;42.632;23.198;2023-02-13T08:51:33;93711.19;;;0.27;96.11
34506;BME280;20748;42.632;23.198;2023-02-13T08:54:05;93703.88;;;0.31;94.27
34506;BME280;20748;42.632;23.198;2023-02-13T08:56:38;93717.13;;;0.28;93.60
34506;BME280;20748;42.632;23.198;2023-02-13T08:59:10;93712.00;;;0.34;93.14
34506;BME280;20748;42.632;23.198;2023-02-13T09:01:43;93715.56;;;0.33;93.95
34506;BME280;20748;42.632;23.198;2023-02-13T09:04:16;93708.91;;;0.52;93.44
34506;BME280;20748;42.632;23.198;2023-02-13T09:06:49;93714.25;;;0.58;92.94
34506;BME280;20748;42.632;23.198;2023-02-13T09:09:22;93713.47;;;0.71;92.12
34506;BME280;20748;42.632;23.198;2023-02-13T09:11:54;93712.69;;;0.57;92.10
34506;BME280;20748;42.632;23.198;2023-02-13T09:14:28;93700.88;;;0.83;92.29
34506;BME280;20748;42.632;23.198;2023-02-13T09:17:01;93709.16;;;0.78;91.27
34506;BME280;20748;42.632;23.198;2023-02-13T09:19:34;93708.59;;;0.96;91.44
34506;BME280;20748;42.632;23.198;2023-02-13T09:22:07;93705.44;;;1.21;91.25
34506;BME280;20748;42.632;23.198;2023-02-13T09:24:39;93705.28;;;1.36;90.10
34506;BME280;20748;42.632;23.198;2023-02-13T09:27:12;93692.38;;;1.63;88.79
34506;BME280;20748;42.632;23.198;2023-02-13T09:29:45;93695.94;;;1.69;87.56
34506;BME280;20748;42.632;23.198;2023-02-13T09:32:17;93705.22;;;1.77;84.90
34506;BME280;20748;42.632;23.198;2023-02-13T09:34:50;93694.34;;;1.81;84.33
34506;BME280;20748;42.632;23.198;2023-02-13T09:37:23;93698.50;;;1.82;84.09
34506;BME280;20748;42.632;23.198;2023-02-13T09:39:55;93686.81;;;1.80;85.14
34506;BME280;20748;42.632;23.198;2023-02-13T09:42:30;93687.38;;;1.82;84.49
34506;BME280;20748;42.632;23.198;2023-02-13T09:45:05;93687.56;;;1.94;84.63
34506;BME280;20748;42.632;23.198;2023-02-13T09:47:40;93683.19;;;2.08;84.16
34506;BME280;20748;42.632;23.198;2023-02-13T09:50:18;93684.47;;;1.71;83.55
34506;BME280;20748;42.632;23.198;2023-02-13T09:52:54;93664.78;;;1.91;83.96
34506;BME280;20748;42.632;23.198;2023-02-13T09:55:34;93681.19;;;2.03;82.53
34506;BME280;20748;42.632;23.198;2023-02-13T09:58:25;93677.72;;;2.30;83.90
34506;BME280;20748;42.632;23.198;2023-02-13T10:01:00;93678.50;;;2.37;82.11
34506;BME280;20748;42.632;23.198;2023-02-13T10:03:41;93671.88;;;2.54;80.38
34506;BME280;20748;42.632;23.198;2023-02-13T10:06:23;93665.19;;;2.79;79.71
34506;BME280;20748;42.632;23.198;2023-02-13T10:09:07;93661.97;;;2.84;77.90
34506;BME280;20748;42.632;23.198;2023-02-13T10:12:00;93657.53;;;2.72;77.45
34506;BME280;20748;42.632;23.198;2023-02-13T10:14:44;93656.06;;;2.83;77.37
34506;BME280;20748;42.632;23.198;2023-02-13T10:17:22;93652.63;;;2.89;78.17
34506;BME280;20748;42.632;23.198;2023-02-13T10:20:00;93649.56;;;3.06;77.44
34506;BME280;20748;42.632;23.198;2023-02-13T10:22:38;93647.66;;;2.94;76.47
34506;BME280;20748;42.632;23.198;2023-02-13T10:25:16;93636.22;;;3.09;76.20
34506;BME280;20748;42.632;23.198;2023-02-13T10:27:54;93649.06;;;3.16;75.09
34506;BME280;20748;42.632;23.198;2023-02-13T10:30:31;93636.06;;;3.29;75.72
34506;BME280;20748;42.632;23.198;2023-02-13T10:33:06;93638.91;;;3.21;73.95
34506;BME280;20748;42.632;23.198;2023-02-13T10:35:57;93633.50;;;3.48;74.63
34506;BME280;20748;42.632;23.198;2023-02-13T10:38:34;93635.69;;;3.51;74.46
34506;BME280;20748;42.632;23.198;2023-02-13T10:41:24;93632.75;;;3.66;74.94
34506;BME280;20748;42.632;23.198;2023-02-13T10:44:14;93622.56;;;3.71;75.85
34506;BME280;20748;42.632;23.198;2023-02-13T10:46:56;93620.19;;;3.70;76.50
34506;BME280;20748;42.632;23.198;2023-02-13T10:49:43;93620.34;;;3.75;75.65
34506;BME280;20748;42.632;23.198;2023-02-13T10:52:28;93617.31;;;3.78;75.25
34506;BME280;20748;42.632;23.198;2023-02-13T10:55:24;93611.59;;;3.76;75.90
34506;BME280;20748;42.632;23.198;2023-02-13T10:58:08;93609.44;;;3.92;75.03
34506;BME280;20748;42.632;23.198;2023-02-13T11:00:47;93609.44;;;3.92;74.80
34506;BME280;20748;42.632;23.198;2023-02-13T11:03:23;93606.69;;;4.05;73.36
34506;BME280;20748;42.632;23.198;2023-02-13T11:05:57;93601.88;;;4.09;74.25
34506;BME280;20748;42.632;23.198;2023-02-13T11:08:33;93605.97;;;4.16;73.53
34506;BME280;20748;42.632;23.198;2023-02-13T11:11:27;93603.53;;;4.22;73.08
34506;BME280;20748;42.632;23.198;2023-02-13T11:14:09;93582.44;;;4.06;72.02
34506;BME280;20748;42.632;23.198;2023-02-13T11:16:50;93593.75;;;4.24;72.48
34506;BME280;20748;42.632;23.198;2023-02-13T11:19:29;93586.41;;;4.39;73.16
34506;BME280;20748;42.632;23.198;2023-02-13T11:22:04;93588.94;;;4.58;72.54
34506;BME280;20748;42.632;23.198;2023-02-13T11:24:39;93590.69;;;4.15;72.32
34506;BME280;20748;42.632;23.198;2023-02-13T11:27:13;93583.91;;;4.33;70.91
34506;BME280;20748;42.632;23.198;2023-02-13T11:29:53;93577.03;;;4.26;71.01
34506;BME280;20748;42.632;23.198;2023-02-13T11:32:28;93571.84;;;4.26;71.40
34506;BME280;20748;42.632;23.198;2023-02-13T11:35:25;93569.53;;;4.37;70.39
34506;BME280;20748;42.632;23.198;2023-02-13T11:38:14;93556.94;;;4.28;71.19
34506;BME280;20748;42.632;23.198;2023-02-13T11:41:05;93562.94;;;4.53;69.84
34506;BME280;20748;42.632;23.198;2023-02-13T11:43:45;93562.31;;;4.69;68.92
34506;BME280;20748;42.632;23.198;2023-02-13T11:46:20;93558.06;;;4.87;67.85
34506;BME280;20748;42.632;23.198;2023-02-13T11:48:59;93548.50;;;5.00;68.25
34506;BME280;20748;42.632;23.198;2023-02-13T11:51:38;93543.56;;;5.22;66.90
34506;BME280;20748;42.632;23.198;2023-02-13T11:54:28;93537.59;;;5.33;66.83
34506;BME280;20748;42.632;23.198;2023-02-13T11:57:14;93535.34;;;5.13;65.26
34506;BME280;20748;42.632;23.198;2023-02-13T11:59:50;93525.66;;;5.32;64.25
34506;BME280;20748;42.632;23.198;2023-02-13T12:02:25;93532.19;;;5.11;65.04
34506;BME280;20748;42.632;23.198;2023-02-13T12:05:15;93520.03;;;5.23;66.23
34506;BME280;20748;42.632;23.198;2023-02-13T12:07:49;93519.81;;;5.13;64.46
34506;BME280;20748;42.632;23.198;2023-02-13T12:10:25;93512.47;;;5.46;63.30
34506;BME280;20748;42.632;23.198;2023-02-13T12:13:03;93503.94;;;5.33;63.94
34506;BME280;20748;42.632;23.198;2023-02-13T12:15:38;93514.28;;;5.33;64.01
34506;BME280;20748;42.632;23.198;2023-02-13T12:18:15;93506.63;;;5.50;63.27
34506;BME280;20748;42.632;23.198;2023-02-13T12:20:55;93501.19;;;5.64;62.53
34506;BME280;20748;42.632;23.198;2023-02-13T12:23:41;93499.88;;;5.78;63.18
34506;BME280;20748;42.632;23.198;2023-02-13T12:26:24;93505.84;;;5.91;61.78
34506;BME280;20748;42.632;23.198;2023-02-13T12:29:23;93500.38;;;6.04;61.06
34506;BME280;20748;42.632;23.198;2023-02-13T12:32:09;93504.81;;;6.21;60.76
34506;BME280;20748;42.632;23.198;2023-02-13T12:35:16;93496.25;;;6.38;58.67
34506;BME280;20748;42.632;23.198;2023-02-13T12:37:58;93503.09;;;6.44;57.37
34506;BME280;20748;42.632;23.198;2023-02-13T12:41:02;93489.47;;;6.49;56.01
34506;BME280;20748;42.632;23.198;2023-02-13T12:47:04;93480.63;;;6.67;55.65
34506;BME280;20748;42.632;23.198;2023-02-13T12:49:57;93478.19;;;6.43;55.86
34506;BME280;20748;42.632;23.198;2023-02-13T12:52:41;93480.09;;;6.30;54.91
34506;BME280;20748;42.632;23.198;2023-02-13T12:55:41;93474.19;;;6.35;54.63
34506;BME280;20748;42.632;23.198;2023-02-13T12:58:37;93475.94;;;6.64;56.50
34506;BME280;20748;42.632;23.198;2023-02-13T13:01:19;93467.19;;;6.87;56.36
34506;BME280;20748;42.632;23.198;2023-02-13T13:04:04;93464.56;;;7.04;53.34
34506;BME280;20748;42.632;23.198;2023-02-13T13:06:49;93467.88;;;6.99;53.25
34506;BME280;20748;42.632;23.198;2023-02-13T13:09:55;93459.69;;;6.91;53.85
34506;BME280;20748;42.632;23.198;2023-02-13T13:12:41;93446.81;;;6.96;54.12
34506;BME280;20748;42.632;23.198;2023-02-13T13:15:24;93455.25;;;7.25;53.91
34506;BME280;20748;42.632;23.198;2023-02-13T13:18:14;93460.19;;;7.27;51.99
34506;BME280;20748;42.632;23.198;2023-02-13T13:20:58;93447.88;;;7.39;52.57
34506;BME280;20748;42.632;23.198;2023-02-13T13:23:34;93452.75;;;7.14;51.76
34506;BME280;20748;42.632;23.198;2023-02-13T13:26:17;93446.06;;;6.61;53.80
34506;BME280;20748;42.632;23.198;2023-02-13T13:28:53;93449.38;;;6.74;53.53
34506;BME280;20748;42.632;23.198;2023-02-13T13:31:27;93444.59;;;6.48;54.22
34506;BME280;20748;42.632;23.198;2023-02-13T13:34:07;93444.28;;;6.44;53.52
34506;BME280;20748;42.632;23.198;2023-02-13T13:36:46;93445.75;;;6.57;53.59
34506;BME280;20748;42.632;23.198;2023-02-13T13:39:32;93448.25;;;6.69;54.23
34506;BME280;20748;42.632;23.198;2023-02-13T13:42:12;93438.84;;;6.63;54.01
34506;BME280;20748;42.632;23.198;2023-02-13T13:45:02;93446.88;;;6.44;53.63
34506;BME280;20748;42.632;23.198;2023-02-13T13:47:47;93446.00;;;6.22;54.51
34506;BME280;20748;42.632;23.198;2023-02-13T13:50:24;93429.72;;;5.80;55.40